»·PEaware :: N700CW KSNA-KOXR

N700CW :: KSNA-KOXR

FLIGHT INFORMATION

Flight Status: Arrived
Operator: Privately registered:
United States
More flights under this callsign
Pilot: Gregory S. (29260)
Aircraft: MOONEY M-20 201 202 205 220 ATS MSE
(M20P)
More flights by this aircraft type
Origin: KSNA John Wayne-Orange Co
United States
Destination: KOXR Oxnard
United States
More flights between these airports :: More routes between these airports
Route: SLI V23 POPPR SMO125 SMO VNY
File this flight plan on PilotEdge
Remarks: TEC Route CSTP24
Altitude:
(Current/Filed)
4,000ft
Speed:
(Current/Filed)
160kts
Departed: 09-Nov-20 05:44 PM
Arrived: 09-Nov-20 06:21 PM
Distance/Time
Traveled:
74nm/0:37
Distance/Time
To Go:
Arrived

Flight Plot

Page will automatically refresh every two minutes.


Map Options




Map Legend


Flown Route
Filed Route
Departure Airport
Arrival Airport
Navaid (VOR, NDB)
Fix

Horizontal Profiles

Position Reports

Time Latitude Longitude Heading Altitude Ground
Speed
09-Nov-20 17:32 33.671977 -117.867497 206 58ft 0kts
09-Nov-20 17:33 33.671977 -117.867497 206 58ft 0kts
09-Nov-20 17:34 33.671977 -117.867497 206 58ft 0kts
09-Nov-20 17:35 33.671977 -117.867497 206 58ft 0kts
09-Nov-20 17:36 33.671977 -117.867497 206 58ft 0kts
09-Nov-20 17:37 33.671977 -117.867497 206 58ft 0kts
09-Nov-20 17:38 33.671977 -117.867497 206 58ft 0kts
09-Nov-20 17:39 33.673648 -117.867120 339 58ft 12kts
09-Nov-20 17:40 33.677118 -117.865170 26 58ft 18kts
09-Nov-20 17:41 33.679963 -117.863612 302 58ft 0kts
09-Nov-20 17:42 33.679963 -117.863612 302 58ft 0kts
09-Nov-20 17:43 33.674504 -117.867670 206 110ft 87kts
09-Nov-20 17:44 33.649220 -117.884961 211 752ft 107kts
09-Nov-20 17:45 33.625818 -117.903632 240 1734ft 98kts
09-Nov-20 17:46 33.641350 -117.922378 333 2750ft 91kts
09-Nov-20 17:47 33.664743 -117.939545 325 3491ft 103kts
09-Nov-20 17:48 33.689039 -117.961569 321 3840ft 122kts
09-Nov-20 17:49 33.716916 -117.988605 320 3842ft 140kts
09-Nov-20 17:50 33.751356 -118.022602 320 3835ft 168kts
09-Nov-20 17:51 33.783045 -118.063288 293 3836ft 169kts
09-Nov-20 17:52 33.798969 -118.116607 288 3835ft 169kts
09-Nov-20 17:53 33.813057 -118.170782 287 3835ft 170kts
09-Nov-20 17:54 33.826924 -118.225257 287 3835ft 170kts
09-Nov-20 17:55 33.841424 -118.279200 302 3834ft 169kts
09-Nov-20 17:56 33.874780 -118.319238 319 3835ft 169kts
09-Nov-20 17:57 33.910643 -118.356042 320 3835ft 169kts
09-Nov-20 17:58 33.946854 -118.392531 320 3835ft 169kts
09-Nov-20 17:59 33.983090 -118.429001 320 3835ft 169kts
09-Nov-20 18:00 34.023387 -118.456282 348 3835ft 169kts
09-Nov-20 18:01 34.069379 -118.465815 352 3835ft 166kts
09-Nov-20 18:02 34.114875 -118.473537 352 3925ft 161kts
09-Nov-20 18:03 34.154660 -118.480164 352 4812ft 135kts
09-Nov-20 18:04 34.196284 -118.486979 352 4855ft 160kts
09-Nov-20 18:05 34.217696 -118.525156 267 4853ft 154kts
09-Nov-20 18:06 34.215390 -118.576574 268 4853ft 153kts
09-Nov-20 18:07 34.211594 -118.627879 263 4853ft 152kts
09-Nov-20 18:08 34.207538 -118.678695 265 4851ft 148kts
09-Nov-20 18:09 34.204131 -118.727306 265 4851ft 143kts
09-Nov-20 18:10 34.200764 -118.775217 265 4842ft 143kts
09-Nov-20 18:11 34.197609 -118.823223 268 4822ft 144kts
09-Nov-20 18:12 34.197093 -118.876101 273 4000ft 171kts
09-Nov-20 18:13 34.198171 -118.931601 267 3543ft 145kts
09-Nov-20 18:14 34.198988 -118.980405 274 3223ft 150kts
09-Nov-20 18:15 34.199413 -119.028691 266 2665ft 121kts
09-Nov-20 18:16 34.199453 -119.067291 273 2215ft 115kts
09-Nov-20 18:17 34.199972 -119.106248 271 1625ft 119kts
09-Nov-20 18:18 34.200146 -119.146112 271 977ft 119kts
09-Nov-20 18:19 34.200690 -119.183845 269 326ft 86kts
09-Nov-20 18:20 34.200784 -119.205076 272 43ft 29kts
09-Nov-20 18:21 34.199162 -119.207047 157 43ft 6kts

Navigation Log

Ident Type
Flight plan parsing failed, navigation log unavailable